Time;durP1;ratioP1;P1;durP2;ratioP2;P2;SDS_P1;SDS_P2;PMS_P1;PMS_P2;Temp;Humidity;BMP_temperature;BMP_pressure;BME280_temperature;BME280_humidity;BME280_pressure;Samples;Min_cycle;Max_cycle;Signal;HPM_P1;HPM_P2
2023/11/25 05:00:39;;;;;;;1.00;0.90;;;1.10;97.30;;;;;;5824091;23;20831;-90
2023/11/25 05:03:05;;;;;;;1.00;0.90;;;1.10;97.30;;;;;;4913419;29;20479;-84
2023/11/25 05:05:32;;;;;;;1.10;1.00;;;1.10;97.30;;;;;;4914823;29;20203;-88
2023/11/25 05:07:57;;;;;;;1.10;1.00;;;1.10;97.30;;;;;;4914806;29;20180;-87
2023/11/25 05:10:23;;;;;;;1.10;1.00;;;1.10;97.30;;;;;;4914505;29;20931;-89
2023/11/25 05:12:52;;;;;;;1.00;0.90;;;1.00;97.30;;;;;;4900745;29;20184;-90
2023/11/25 05:15:18;;;;;;;1.10;1.00;;;1.00;97.30;;;;;;4898671;29;20192;-90
2023/11/25 05:17:44;;;;;;;1.40;1.30;;;1.00;97.30;;;;;;4914910;29;20420;-88
2023/11/25 05:20:12;;;;;;;1.10;1.00;;;1.00;97.30;;;;;;4914693;29;20239;-90
2023/11/25 05:22:38;;;;;;;1.10;1.00;;;0.90;97.30;;;;;;4914713;29;20240;-89
2023/11/25 05:25:05;;;;;;;1.00;0.90;;;0.90;97.30;;;;;;4916011;29;20429;-86
2023/11/25 05:27:31;;;;;;;1.00;0.90;;;0.90;97.30;;;;;;4913829;29;20181;-89
2023/11/25 05:29:56;;;;;;;2.70;2.50;;;0.90;97.30;;;;;;4897346;29;20425;-88
2023/11/25 05:32:22;;;;;;;1.30;1.20;;;0.80;97.30;;;;;;4897567;29;20212;-89
2023/11/25 05:34:48;;;;;;;1.10;1.00;;;0.80;97.30;;;;;;4914705;29;20184;-87
2023/11/25 05:37:14;;;;;;;1.10;1.00;;;0.70;97.30;;;;;;4897581;29;20989;-89
2023/11/25 05:39:40;;;;;;;1.20;1.10;;;0.70;97.30;;;;;;4897744;29;20532;-90
2023/11/25 05:42:07;;;;;;;1.20;1.10;;;0.70;97.30;;;;;;4897356;29;20205;-89
2023/11/25 05:44:33;;;;;;;1.30;1.20;;;0.70;97.30;;;;;;4897484;29;20431;-89
2023/11/25 05:46:58;;;;;;;1.30;1.20;;;0.70;97.30;;;;;;4905554;29;20523;-90
2023/11/25 05:49:24;;;;;;;1.20;1.10;;;0.70;97.30;;;;;;4897397;29;20196;-89
2023/11/25 05:51:51;;;;;;;1.30;1.20;;;0.60;97.30;;;;;;4897093;29;20206;-90
2023/11/25 05:54:17;;;;;;;1.00;0.90;;;0.60;97.30;;;;;;4903676;29;20196;-89
2023/11/25 05:56:44;;;;;;;1.17;1.07;;;0.60;97.30;;;;;;4914002;29;20437;-87
2023/11/25 05:59:09;;;;;;;1.10;1.00;;;0.50;97.30;;;;;;4913577;29;20432;-87
2023/11/25 06:01:36;;;;;;;1.53;1.43;;;0.60;97.30;;;;;;4896601;29;20550;-88
2023/11/25 06:04:02;;;;;;;1.80;1.70;;;0.60;97.30;;;;;;4895917;29;20572;-88
2023/11/25 06:06:27;;;;;;;1.63;1.20;;;0.50;97.30;;;;;;4913928;29;20556;-89
2023/11/25 06:08:53;;;;;;;1.10;1.03;;;0.50;97.30;;;;;;4900613;29;20666;-88
2023/11/25 06:11:26;;;;;;;1.10;1.00;;;0.50;97.30;;;;;;4898407;29;20200;-88
2023/11/25 06:13:53;;;;;;;1.50;1.40;;;0.40;97.30;;;;;;4897216;29;20196;-88
2023/11/25 06:16:19;;;;;;;1.10;1.00;;;0.40;97.30;;;;;;4897282;29;20576;-88
2023/11/25 06:18:44;;;;;;;1.40;1.30;;;0.40;97.30;;;;;;4913198;29;20862;-87
2023/11/25 06:21:10;;;;;;;1.10;1.00;;;0.40;97.30;;;;;;4897191;29;20208;-90
2023/11/25 06:23:36;;;;;;;1.10;1.00;;;0.40;97.30;;;;;;4914339;29;20582;-88
2023/11/25 06:26:01;;;;;;;1.00;0.90;;;0.40;97.30;;;;;;4897635;29;20471;-88
2023/11/25 06:28:28;;;;;;;1.10;1.00;;;0.40;97.30;;;;;;4897335;29;20193;-89
2023/11/25 06:30:54;;;;;;;1.53;1.43;;;0.40;97.30;;;;;;4913196;29;20208;-89
2023/11/25 06:33:24;;;;;;;1.10;1.00;;;0.40;97.30;;;;;;4897068;29;20443;-88
2023/11/25 06:35:50;;;;;;;2.03;1.90;;;0.40;97.30;;;;;;4896930;29;20264;-88
2023/11/25 06:38:16;;;;;;;1.10;1.00;;;0.40;97.30;;;;;;4914706;29;20777;-87
2023/11/25 06:40:41;;;;;;;1.10;1.00;;;0.40;97.30;;;;;;4901502;29;20847;-86
2023/11/25 06:43:07;;;;;;;1.20;1.10;;;0.50;97.30;;;;;;4907761;29;20460;-87
2023/11/25 06:45:34;;;;;;;1.30;1.20;;;0.50;97.30;;;;;;4900744;29;20358;-89
2023/11/25 06:48:00;;;;;;;1.10;1.00;;;0.50;97.30;;;;;;4900615;29;20193;-87
2023/11/25 06:50:25;;;;;;;1.10;1.00;;;0.50;97.30;;;;;;4900116;29;20436;-89
2023/11/25 06:52:51;;;;;;;1.10;1.00;;;0.50;97.30;;;;;;4894224;29;20426;-88
2023/11/25 06:55:20;;;;;;;1.10;1.00;;;0.60;97.30;;;;;;4905918;29;20450;-89
2023/11/25 06:57:46;;;;;;;1.00;0.90;;;0.60;97.30;;;;;;4900557;29;20193;-88
2023/11/25 07:00:13;;;;;;;1.00;0.90;;;0.70;97.30;;;;;;4900160;29;20432;-88
2023/11/25 07:02:40;;;;;;;4.00;1.77;;;0.70;97.30;;;;;;4906711;29;20583;-88
2023/11/25 07:05:07;;;;;;;1.20;1.10;;;0.70;97.30;;;;;;4900006;29;20464;-88
2023/11/25 07:07:33;;;;;;;1.20;1.10;;;0.80;97.30;;;;;;4900105;29;20464;-89
2023/11/25 07:09:59;;;;;;;1.10;1.00;;;0.80;97.30;;;;;;4903143;29;20499;-87
2023/11/25 07:12:24;;;;;;;1.07;0.97;;;0.80;97.30;;;;;;4915904;29;20220;-89
2023/11/25 07:14:50;;;;;;;1.10;1.00;;;0.90;97.30;;;;;;4899801;29;20223;-88
2023/11/25 07:17:15;;;;;;;1.10;1.00;;;0.90;97.30;;;;;;4899683;29;20196;-88
2023/11/25 07:19:42;;;;;;;1.20;1.10;;;0.90;97.30;;;;;;4915524;29;20188;-90
2023/11/25 07:22:08;;;;;;;1.10;1.00;;;0.90;97.30;;;;;;4899335;29;20691;-88
2023/11/25 07:24:34;;;;;;;1.67;1.57;;;1.00;97.30;;;;;;4916538;29;20436;-88
2023/11/25 07:27:04;;;;;;;1.20;1.10;;;1.00;97.30;;;;;;4916245;29;21060;-88
2023/11/25 07:29:31;;;;;;;1.00;0.90;;;1.00;97.30;;;;;;4899543;29;20949;-88
2023/11/25 07:32:01;;;;;;;1.30;1.20;;;1.10;97.30;;;;;;4899957;29;20459;-88
2023/11/25 07:34:35;;;;;;;1.30;1.20;;;1.10;97.30;;;;;;4916107;29;20439;-88
2023/11/25 07:37:01;;;;;;;1.10;1.00;;;1.10;97.30;;;;;;4916336;29;20795;-87
2023/11/25 07:39:29;;;;;;;1.10;1.00;;;1.10;97.30;;;;;;4916219;29;20560;-88
2023/11/25 07:41:57;;;;;;;1.70;1.60;;;1.10;97.30;;;;;;4899125;29;20259;-86
2023/11/25 07:44:27;;;;;;;1.10;1.00;;;1.10;97.30;;;;;;4922523;29;20480;-88
2023/11/25 07:46:53;;;;;;;1.10;1.00;;;1.20;97.30;;;;;;4916639;29;20464;-88
2023/11/25 07:49:18;;;;;;;2.47;2.33;;;1.20;97.30;;;;;;4899935;29;20853;-91
2023/11/25 07:51:45;;;;;;;1.10;1.00;;;1.20;97.30;;;;;;4915405;29;20491;-88
2023/11/25 07:54:11;;;;;;;1.63;1.53;;;1.30;97.30;;;;;;4908461;29;20531;-89
2023/11/25 07:56:37;;;;;;;1.10;1.00;;;1.30;97.30;;;;;;4900000;29;20440;-88
2023/11/25 07:59:03;;;;;;;1.50;1.40;;;1.40;97.30;;;;;;4915924;29;20184;-85
2023/11/25 08:01:28;;;;;;;1.10;1.00;;;1.40;97.30;;;;;;4915571;29;20478;-88
2023/11/25 08:03:54;;;;;;;1.20;1.10;;;1.40;97.30;;;;;;4915737;29;20212;-88
2023/11/25 08:06:21;;;;;;;1.10;1.00;;;1.40;97.30;;;;;;4915717;29;20260;-89
2023/11/25 08:08:46;;;;;;;6.10;3.20;;;1.50;97.30;;;;;;4915661;29;20187;-87
2023/11/25 08:11:24;;;;;;;1.40;1.30;;;1.50;97.30;;;;;;4911038;29;20441;-87
2023/11/25 08:13:50;;;;;;;1.20;1.10;;;1.50;97.30;;;;;;4901955;29;20225;-89
2023/11/25 08:16:16;;;;;;;1.10;1.00;;;1.50;97.30;;;;;;4915825;29;20456;-88
2023/11/25 08:18:42;;;;;;;2.73;1.43;;;1.50;97.30;;;;;;4902760;29;20674;-88
2023/11/25 08:21:08;;;;;;;1.10;1.00;;;1.60;97.30;;;;;;4896616;29;20634;-86
2023/11/25 08:23:33;;;;;;;1.30;1.20;;;1.60;97.30;;;;;;4893230;29;20206;-86
2023/11/25 08:25:59;;;;;;;1.83;1.67;;;1.60;97.30;;;;;;4894898;29;20655;-84
2023/11/25 08:28:25;;;;;;;1.00;0.90;;;1.60;97.30;;;;;;4899757;29;20605;-86
2023/11/25 08:30:51;;;;;;;1.00;0.90;;;1.70;97.30;;;;;;4896421;29;20611;-86
2023/11/25 08:33:17;;;;;;;1.30;1.20;;;1.70;97.30;;;;;;4900668;29;20447;-88
2023/11/25 08:35:43;;;;;;;1.27;1.17;;;1.70;97.30;;;;;;4898202;29;20189;-89
2023/11/25 08:38:10;;;;;;;1.30;1.20;;;1.70;97.30;;;;;;4901016;29;20471;-88
2023/11/25 08:40:35;;;;;;;1.10;1.00;;;1.80;97.30;;;;;;4898451;29;20425;-88
2023/11/25 08:43:08;;;;;;;1.10;1.00;;;1.90;97.30;;;;;;4915496;29;20463;-86
2023/11/25 08:45:34;;;;;;;1.27;1.17;;;1.90;97.30;;;;;;4898657;29;20187;-88
2023/11/25 08:48:00;;;;;;;1.50;1.40;;;2.00;97.30;;;;;;4900287;29;20472;-85
2023/11/25 08:50:25;;;;;;;1.00;0.90;;;2.10;97.30;;;;;;4917310;29;20420;-84
2023/11/25 08:52:51;;;;;;;2.90;1.27;;;2.10;97.30;;;;;;4900133;29;20193;-88
2023/11/25 08:55:19;;;;;;;1.80;1.70;;;2.20;97.30;;;;;;4916378;29;20209;-87
2023/11/25 08:57:45;;;;;;;1.00;0.90;;;2.30;97.30;;;;;;4916754;29;20184;-84
2023/11/25 09:00:14;;;;;;;1.07;0.97;;;2.40;97.30;;;;;;4899385;29;20479;-87
2023/11/25 09:02:44;;;;;;;1.10;1.00;;;2.40;97.30;;;;;;4899523;29;20236;-89
2023/11/25 09:05:10;;;;;;;1.00;0.90;;;2.50;97.30;;;;;;4900615;29;20512;-88
2023/11/25 09:07:39;;;;;;;0.90;0.80;;;2.50;97.30;;;;;;4914568;29;20500;-86
2023/11/25 09:10:05;;;;;;;2.80;1.47;;;2.50;97.30;;;;;;4898132;29;20600;-88
2023/11/25 09:12:31;;;;;;;3.43;2.30;;;2.50;97.30;;;;;;4913208;29;20448;-87
2023/11/25 09:14:57;;;;;;;1.50;1.40;;;2.60;97.30;;;;;;4897461;29;20429;-87
2023/11/25 09:17:23;;;;;;;1.07;0.97;;;2.50;97.30;;;;;;4916042;29;20431;-86
2023/11/25 09:19:50;;;;;;;1.00;0.90;;;2.50;97.30;;;;;;4905828;29;20244;-87
2023/11/25 09:22:15;;;;;;;1.10;1.00;;;2.50;97.30;;;;;;4898274;29;20211;-88
2023/11/25 09:24:41;;;;;;;1.10;1.00;;;2.60;97.30;;;;;;4905242;29;20416;-91
2023/11/25 09:27:07;;;;;;;1.00;0.90;;;2.60;97.30;;;;;;4907076;29;20492;-86
2023/11/25 09:29:34;;;;;;;1.00;0.90;;;2.60;97.30;;;;;;4904824;29;20296;-88
2023/11/25 09:32:01;;;;;;;1.10;1.00;;;2.60;97.30;;;;;;4911265;29;20738;-89
2023/11/25 09:34:26;;;;;;;1.10;1.00;;;2.60;97.30;;;;;;4903454;29;20431;-86
2023/11/25 09:36:52;;;;;;;1.10;1.00;;;2.70;97.30;;;;;;4913287;29;20484;-88
2023/11/25 09:39:18;;;;;;;1.00;0.90;;;2.70;97.30;;;;;;4898704;29;20458;-84
2023/11/25 09:41:43;;;;;;;1.13;1.03;;;2.70;97.30;;;;;;4895546;29;20833;-88
2023/11/25 09:44:10;;;;;;;1.23;1.20;;;2.70;97.30;;;;;;4898305;29;20978;-87
2023/11/25 09:46:36;;;;;;;1.10;1.00;;;2.70;97.30;;;;;;4892749;29;20694;-88
2023/11/25 09:49:02;;;;;;;1.00;0.90;;;2.80;97.30;;;;;;4904086;29;20846;-87
2023/11/25 09:51:32;;;;;;;1.00;0.90;;;2.80;97.30;;;;;;4900467;29;20491;-85
2023/11/25 09:54:07;;;;;;;0.90;0.80;;;2.80;97.30;;;;;;4912458;29;20184;-84
2023/11/25 09:56:36;;;;;;;1.33;1.27;;;2.80;97.30;;;;;;4909714;29;20973;-88
2023/11/25 09:59:03;;;;;;;1.20;1.10;;;2.70;97.30;;;;;;4907173;29;20457;-87
2023/11/25 10:01:29;;;;;;;5.33;1.50;;;2.60;97.30;;;;;;4909902;29;20741;-84
2023/11/25 10:03:57;;;;;;;1.10;1.00;;;2.60;97.30;;;;;;4909085;29;20554;-89
2023/11/25 10:06:22;;;;;;;1.07;0.97;;;2.50;97.30;;;;;;4898903;29;21302;-87
2023/11/25 10:08:48;;;;;;;1.20;1.10;;;2.50;97.30;;;;;;4899723;29;20852;-84
2023/11/25 10:11:14;;;;;;;1.70;1.53;;;2.40;97.30;;;;;;4903614;29;20233;-87
2023/11/25 10:13:42;;;;;;;1.10;1.00;;;2.40;97.30;;;;;;4926974;29;20193;-87
2023/11/25 10:16:09;;;;;;;1.20;1.10;;;2.30;97.30;;;;;;4914354;29;20444;-88
2023/11/25 10:18:39;;;;;;;0.90;0.80;;;2.20;97.30;;;;;;4909198;29;20802;-88
2023/11/25 10:21:06;;;;;;;1.33;1.23;;;2.20;97.30;;;;;;4903828;29;20444;-86
2023/11/25 10:23:33;;;;;;;1.10;1.00;;;2.20;97.30;;;;;;4902192;29;20456;-87
2023/11/25 10:26:03;;;;;;;2.03;1.90;;;2.10;97.30;;;;;;4904058;29;20865;-86
2023/11/25 10:28:32;;;;;;;1.20;1.10;;;2.10;97.30;;;;;;4918521;29;20424;-90
2023/11/25 10:31:00;;;;;;;5.63;3.23;;;2.10;97.30;;;;;;4918378;29;20444;-86
2023/11/25 10:33:27;;;;;;;2.80;2.60;;;2.10;97.30;;;;;;4910144;29;20482;-88
2023/11/25 10:35:53;;;;;;;1.50;1.40;;;2.00;97.30;;;;;;4919822;29;20436;-88
2023/11/25 10:38:22;;;;;;;1.43;1.33;;;2.00;97.30;;;;;;4907207;29;20484;-89
2023/11/25 10:40:51;;;;;;;2.33;1.40;;;1.90;97.30;;;;;;4905653;29;20471;-88
2023/11/25 10:43:18;;;;;;;1.13;1.10;;;1.80;97.30;;;;;;4910929;29;20478;-89
2023/11/25 10:45:44;;;;;;;2.90;1.20;;;1.70;97.30;;;;;;4905545;29;20421;-88
2023/11/25 10:48:12;;;;;;;1.10;1.00;;;1.70;97.30;;;;;;4921687;29;20512;-89
2023/11/25 10:50:40;;;;;;;1.10;1.00;;;1.70;97.30;;;;;;4907104;29;20204;-91
2023/11/25 10:53:07;;;;;;;1.00;0.90;;;1.70;97.30;;;;;;4905502;29;20433;-88
2023/11/25 10:55:33;;;;;;;1.17;1.17;;;1.60;97.30;;;;;;4905202;29;20431;-89
2023/11/25 10:58:00;;;;;;;1.20;1.10;;;1.50;97.30;;;;;;4909151;29;20428;-89
2023/11/25 11:00:28;;;;;;;1.20;1.10;;;1.50;97.30;;;;;;4907753;29;20450;-91
2023/11/25 11:02:58;;;;;;;1.00;0.90;;;1.50;97.30;;;;;;4903218;29;20910;-91
2023/11/25 11:05:45;;;;;;;1.83;1.73;;;1.60;97.30;;;;;;4903648;29;20439;-88
2023/11/25 11:08:21;;;;;;;1.20;1.10;;;1.60;97.30;;;;;;4906307;29;20920;-89
2023/11/25 11:10:54;;;;;;;1.10;1.00;;;1.60;97.30;;;;;;4920504;29;20460;-90
2023/11/25 11:13:33;;;;;;;1.70;1.60;;;1.70;97.30;;;;;;4907185;29;20834;-88
2023/11/25 11:16:10;;;;;;;1.67;1.57;;;1.70;97.30;;;;;;4918062;29;20590;-88
2023/11/25 11:18:38;;;;;;;1.80;1.70;;;1.70;97.30;;;;;;4919303;29;20467;-90
2023/11/25 11:21:06;;;;;;;1.70;1.27;;;1.70;97.30;;;;;;4923207;29;20857;-87
2023/11/25 11:23:36;;;;;;;1.23;1.17;;;1.70;97.30;;;;;;4912605;29;20470;-89
2023/11/25 11:26:21;;;;;;;7.03;2.50;;;1.80;97.30;;;;;;4901226;29;20425;-87
2023/11/25 11:29:01;;;;;;;1.20;1.10;;;1.90;97.30;;;;;;4902637;29;20447;-87
2023/11/25 11:31:42;;;;;;;1.80;1.70;;;2.00;97.30;;;;;;4907706;29;20459;-88
2023/11/25 11:34:08;;;;;;;1.00;0.90;;;2.00;97.30;;;;;;4908354;29;20507;-87
2023/11/25 11:36:35;;;;;;;1.17;1.07;;;2.10;97.30;;;;;;4907992;29;20612;-89
2023/11/25 11:39:01;;;;;;;1.50;1.40;;;2.20;97.30;;;;;;4905754;29;20197;-90
2023/11/25 11:41:30;;;;;;;1.40;1.30;;;2.20;97.30;;;;;;4908521;29;20456;-90
2023/11/25 11:44:08;;;;;;;1.10;1.00;;;2.20;97.30;;;;;;4898252;29;21015;-89
2023/11/25 11:46:38;;;;;;;3.80;1.73;;;2.20;97.30;;;;;;4906119;29;20435;-89
2023/11/25 11:49:10;;;;;;;1.10;1.00;;;2.30;97.30;;;;;;4902955;29;20947;-87
2023/11/25 11:51:36;;;;;;;1.00;0.90;;;2.30;97.30;;;;;;4899010;29;20451;-89
2023/11/25 11:54:20;;;;;;;1.60;1.53;;;2.40;97.30;;;;;;4906329;29;20456;-88
2023/11/25 11:57:02;;;;;;;1.40;1.30;;;2.50;97.30;;;;;;4914828;29;20202;-89
2023/11/25 11:59:59;;;;;;;1.47;1.10;;;2.60;97.30;;;;;;4908966;29;20438;-89
2023/11/25 12:02:28;;;;;;;1.23;1.13;;;2.60;97.30;;;;;;4906840;29;20548;-88
2023/11/25 12:04:53;;;;;;;6.57;3.47;;;2.60;97.30;;;;;;4912407;29;20828;-90
2023/11/25 12:07:19;;;;;;;1.40;1.30;;;2.60;97.30;;;;;;4918503;29;20424;-86
2023/11/25 12:09:45;;;;;;;1.43;1.37;;;2.60;97.30;;;;;;4899000;29;20186;-87
2023/11/25 12:12:10;;;;;;;2.17;1.70;;;2.60;97.30;;;;;;4906202;29;20440;-88
2023/11/25 12:14:36;;;;;;;1.00;0.90;;;2.60;97.30;;;;;;4905670;29;20195;-90
2023/11/25 12:17:02;;;;;;;1.47;1.40;;;2.60;97.30;;;;;;4905116;29;20263;-88
2023/11/25 12:19:28;;;;;;;1.10;1.00;;;2.60;97.30;;;;;;4902453;29;20187;-89
2023/11/25 12:21:54;;;;;;;0.93;0.83;;;2.60;97.30;;;;;;4899227;29;20204;-88
2023/11/25 12:24:19;;;;;;;1.17;1.07;;;2.60;97.30;;;;;;4919578;29;20464;-90
2023/11/25 12:26:50;;;;;;;1.57;1.47;;;2.60;97.30;;;;;;4905330;29;20196;-90
2023/11/25 12:29:16;;;;;;;1.33;1.23;;;2.60;97.30;;;;;;4910830;29;20187;-90
2023/11/25 12:31:43;;;;;;;1.67;1.57;;;2.60;97.30;;;;;;4924403;29;20448;-87
2023/11/25 12:34:09;;;;;;;0.90;0.80;;;2.70;97.30;;;;;;4918857;29;20877;-90
2023/11/25 12:36:35;;;;;;;1.43;1.33;;;2.70;97.30;;;;;;4917535;29;20638;-87
2023/11/25 12:39:03;;;;;;;1.00;0.90;;;2.70;97.30;;;;;;4899862;29;20192;-88
2023/11/25 12:41:28;;;;;;;1.73;1.63;;;2.70;97.30;;;;;;4900582;29;20485;-89
2023/11/25 12:44:05;;;;;;;0.90;0.80;;;2.80;97.30;;;;;;4896575;29;20507;-92
2023/11/25 12:46:31;;;;;;;2.50;1.53;;;2.80;97.30;;;;;;4900434;29;20564;-88
2023/11/25 12:48:59;;;;;;;1.20;1.10;;;2.80;97.30;;;;;;4899770;29;20419;-90
2023/11/25 12:51:24;;;;;;;1.40;1.30;;;2.90;97.30;;;;;;4897904;29;20201;-90
2023/11/25 12:53:54;;;;;;;1.13;1.03;;;2.90;97.30;;;;;;4899337;29;20435;-88
2023/11/25 12:56:21;;;;;;;1.27;0.97;;;2.90;97.30;;;;;;4900712;29;20672;-88
2023/11/25 12:58:47;;;;;;;0.90;0.80;;;3.00;97.30;;;;;;4914835;29;20464;-90
2023/11/25 13:01:13;;;;;;;1.47;1.37;;;3.00;97.30;;;;;;4905816;29;20508;-89
2023/11/25 13:03:39;;;;;;;1.23;1.13;;;3.00;97.30;;;;;;4916599;29;21004;-89
2023/11/25 13:06:06;;;;;;;10.30;1.50;;;3.00;97.30;;;;;;4911077;29;20447;-89
2023/11/25 13:08:36;;;;;;;4.63;1.10;;;3.00;97.30;;;;;;4899205;29;20227;-89
2023/11/25 13:11:10;;;;;;;1.23;1.13;;;3.00;97.30;;;;;;4903409;29;20437;-89
2023/11/25 13:13:35;;;;;;;1.20;1.10;;;3.10;97.30;;;;;;4917251;29;20460;-90
2023/11/25 13:16:04;;;;;;;1.40;1.30;;;3.10;97.30;;;;;;4896757;29;20864;-91
2023/11/25 13:18:33;;;;;;;1.20;1.10;;;3.10;97.30;;;;;;4897529;29;20424;-91
2023/11/25 13:21:06;;;;;;;0.97;0.87;;;3.10;97.30;;;;;;4914360;29;20512;-91
2023/11/25 13:23:37;;;;;;;13.60;3.53;;;3.10;97.30;;;;;;4894204;29;20510;-90
2023/11/25 13:26:03;;;;;;;1.00;0.90;;;3.00;97.30;;;;;;4911707;29;20942;-90
2023/11/25 13:28:29;;;;;;;14.40;1.30;;;3.00;97.30;;;;;;4891961;29;20416;-90
2023/11/25 13:30:55;;;;;;;0.90;0.80;;;3.00;97.30;;;;;;4897869;29;20815;-90
2023/11/25 13:33:20;;;;;;;1.23;1.13;;;3.10;97.30;;;;;;4899720;29;20219;-91
2023/11/25 13:35:46;;;;;;;1.33;1.23;;;3.10;97.30;;;;;;4908544;29;20687;-90
2023/11/25 13:38:12;;;;;;;1.00;0.90;;;3.10;97.30;;;;;;4924312;29;20270;-91
2023/11/25 13:40:39;;;;;;;2.30;1.13;;;3.10;97.30;;;;;;4909771;29;20194;-91
2023/11/25 13:43:06;;;;;;;1.37;1.30;;;3.10;97.30;;;;;;4898827;29;20476;-89
2023/11/25 13:45:32;;;;;;;1.20;1.10;;;3.20;97.30;;;;;;4901634;29;20935;-89
2023/11/25 13:48:00;;;;;;;1.30;1.20;;;3.20;97.30;;;;;;4906322;29;20450;-88
2023/11/25 13:50:27;;;;;;;1.37;1.27;;;3.20;97.30;;;;;;4898632;29;20437;-89
2023/11/25 13:52:53;;;;;;;1.20;1.10;;;3.20;97.30;;;;;;4902276;29;20432;-88
2023/11/25 13:55:20;;;;;;;2.70;2.20;;;3.20;97.30;;;;;;4898937;29;20441;-88
2023/11/25 13:57:47;;;;;;;1.00;0.90;;;3.20;97.30;;;;;;4908212;29;20431;-91
2023/11/25 14:00:14;;;;;;;1.23;1.17;;;3.20;97.30;;;;;;4915090;29;20436;-90
2023/11/25 14:02:40;;;;;;;1.47;1.37;;;3.20;97.30;;;;;;4917669;29;20487;-90
2023/11/25 14:05:08;;;;;;;2.20;1.10;;;3.10;97.30;;;;;;4905192;29;20457;-91
2023/11/25 14:07:37;;;;;;;1.90;1.80;;;3.10;97.30;;;;;;4897695;29;20428;-91
2023/11/25 14:10:05;;;;;;;1.27;1.17;;;3.10;97.30;;;;;;4908275;29;20906;-89
2023/11/25 14:12:31;;;;;;;0.90;0.80;;;3.10;97.30;;;;;;4904963;29;20496;-89
2023/11/25 14:14:58;;;;;;;1.00;0.90;;;3.10;97.30;;;;;;4914185;29;20428;-90
2023/11/25 14:17:25;;;;;;;0.97;0.87;;;3.10;97.30;;;;;;4906260;29;20440;-92
2023/11/25 14:19:52;;;;;;;3.33;1.63;;;3.10;97.30;;;;;;4902431;29;20425;-89
2023/11/25 14:22:19;;;;;;;1.10;1.00;;;3.10;97.30;;;;;;4908233;29;20966;-90
2023/11/25 14:24:45;;;;;;;1.00;0.90;;;3.10;97.30;;;;;;4904481;29;20465;-90
2023/11/25 14:27:11;;;;;;;1.10;1.00;;;3.10;97.30;;;;;;4906456;29;20436;-90
2023/11/25 14:29:38;;;;;;;1.53;1.43;;;3.10;97.30;;;;;;4906504;29;20428;-90
2023/11/25 14:32:04;;;;;;;1.23;1.13;;;3.10;97.30;;;;;;4895317;29;20255;-89
2023/11/25 14:34:29;;;;;;;1.00;0.90;;;3.10;97.30;;;;;;4909524;29;20432;-90
2023/11/25 14:36:56;;;;;;;1.40;1.30;;;3.20;97.30;;;;;;4898065;29;20441;-90
2023/11/25 14:39:32;;;;;;;1.67;1.57;;;3.20;97.30;;;;;;4901562;29;20657;-90
2023/11/25 14:42:01;;;;;;;1.00;0.90;;;3.20;97.30;;;;;;4919904;29;20449;-91
2023/11/25 14:44:28;;;;;;;1.30;1.20;;;3.20;97.30;;;;;;4914996;29;20471;-89
2023/11/25 14:46:55;;;;;;;1.00;0.90;;;3.20;97.30;;;;;;4917564;29;20428;-90
2023/11/25 14:49:21;;;;;;;1.43;1.33;;;3.20;97.30;;;;;;4905277;29;20436;-89
2023/11/25 14:51:46;;;;;;;1.00;0.90;;;3.20;97.30;;;;;;4909749;29;20820;-88
2023/11/25 14:54:12;;;;;;;1.17;1.10;;;3.20;97.30;;;;;;4907727;29;20693;-90
2023/11/25 14:56:40;;;;;;;0.90;0.80;;;3.20;97.30;;;;;;4905582;29;20189;-89
2023/11/25 14:59:06;;;;;;;0.90;0.80;;;3.20;97.30;;;;;;4919425;29;20449;-89
2023/11/25 15:01:31;;;;;;;1.10;1.00;;;3.20;97.30;;;;;;4916455;29;20508;-90
2023/11/25 15:03:57;;;;;;;1.27;1.20;;;3.20;97.30;;;;;;4905126;29;20216;-90
2023/11/25 15:06:23;;;;;;;1.17;1.07;;;3.20;97.30;;;;;;4911887;29;20192;-92
2023/11/25 15:08:49;;;;;;;1.00;0.90;;;3.10;97.30;;;;;;4912185;29;20199;-90
2023/11/25 15:11:15;;;;;;;2.53;2.30;;;3.10;97.30;;;;;;4909732;29;20829;-89
2023/11/25 15:13:40;;;;;;;2.60;1.60;;;3.10;97.30;;;;;;4915962;29;20436;-90
2023/11/25 15:16:06;;;;;;;1.07;0.97;;;3.10;97.30;;;;;;4925867;29;20556;-90
2023/11/25 15:18:32;;;;;;;1.47;1.37;;;3.10;97.30;;;;;;4926349;29;20214;-89
2023/11/25 15:21:01;;;;;;;3.53;1.77;;;3.10;97.30;;;;;;4934282;29;20211;-89
2023/11/25 15:23:27;;;;;;;1.17;1.07;;;3.10;97.30;;;;;;4901529;29;20312;-89
2023/11/25 15:25:52;;;;;;;1.10;1.00;;;3.10;97.30;;;;;;4922897;29;20507;-89
2023/11/25 15:28:18;;;;;;;3.23;2.17;;;3.10;97.30;;;;;;4913591;29;20526;-90
2023/11/25 15:30:44;;;;;;;1.47;1.37;;;3.10;97.30;;;;;;4909915;29;20254;-89
2023/11/25 15:33:11;;;;;;;1.00;0.90;;;3.10;97.30;;;;;;4923083;29;20428;-90
2023/11/25 15:35:37;;;;;;;1.00;0.90;;;3.10;97.30;;;;;;4923895;29;20192;-88
2023/11/25 15:38:03;;;;;;;1.30;1.20;;;3.10;97.30;;;;;;4904395;29;20862;-89
2023/11/25 15:40:29;;;;;;;1.33;1.20;;;3.20;97.30;;;;;;4906187;29;20516;-89
2023/11/25 15:42:54;;;;;;;1.10;1.00;;;3.20;97.30;;;;;;4914556;29;20686;-90
2023/11/25 15:45:20;;;;;;;1.33;1.20;;;3.20;97.30;;;;;;4905930;29;20188;-89
2023/11/25 15:47:45;;;;;;;2.03;1.90;;;3.20;97.30;;;;;;4922443;29;20213;-88
2023/11/25 15:50:11;;;;;;;1.67;1.50;;;3.20;97.30;;;;;;4911662;29;20185;-90
2023/11/25 15:52:36;;;;;;;2.07;1.93;;;3.20;97.30;;;;;;4926420;29;20207;-92
2023/11/25 15:55:02;;;;;;;1.27;1.27;;;3.20;97.30;;;;;;4915045;29;20188;-88
2023/11/25 15:57:28;;;;;;;4.53;3.73;;;3.20;97.30;;;;;;4925656;29;20263;-87
2023/11/25 15:59:53;;;;;;;1.10;1.00;;;3.20;97.30;;;;;;4913202;29;20424;-88
2023/11/25 16:02:19;;;;;;;1.20;1.10;;;3.20;97.30;;;;;;4928736;29;20376;-90
2023/11/25 16:04:48;;;;;;;1.00;0.90;;;3.20;97.30;;;;;;4913887;29;20581;-87
2023/11/25 16:07:14;;;;;;;1.83;1.73;;;3.20;97.30;;;;;;4902972;29;20215;-90
2023/11/25 16:09:41;;;;;;;1.00;0.90;;;3.20;97.30;;;;;;4929389;29;20479;-88
2023/11/25 16:12:09;;;;;;;1.10;1.00;;;3.20;97.30;;;;;;4902172;29;20443;-89
2023/11/25 16:14:35;;;;;;;1.20;1.10;;;3.20;97.30;;;;;;4906477;29;20442;-90
2023/11/25 16:17:02;;;;;;;1.67;1.30;;;3.20;97.30;;;;;;4906928;29;20428;-89
2023/11/25 16:19:28;;;;;;;0.90;0.80;;;3.20;97.30;;;;;;4913379;29;20443;-89
2023/11/25 16:21:54;;;;;;;1.40;1.30;;;3.10;97.30;;;;;;4910697;29;20472;-90
2023/11/25 16:24:20;;;;;;;1.20;1.10;;;3.10;97.30;;;;;;4913099;29;20807;-89
2023/11/25 16:26:45;;;;;;;1.70;1.57;;;3.10;97.30;;;;;;4921919;29;20416;-89
2023/11/25 16:29:12;;;;;;;1.00;0.90;;;3.10;97.30;;;;;;4911902;29;20299;-88
2023/11/25 16:31:38;;;;;;;1.10;1.00;;;3.10;97.30;;;;;;4908797;29;20528;-89
2023/11/25 16:34:03;;;;;;;1.70;1.60;;;3.00;97.30;;;;;;4910667;29;20195;-90
2023/11/25 16:36:29;;;;;;;2.03;1.63;;;3.00;97.30;;;;;;4913614;29;20189;-89
2023/11/25 16:38:54;;;;;;;1.00;0.90;;;3.00;97.30;;;;;;4907332;29;20191;-88
2023/11/25 16:41:23;;;;;;;1.10;1.00;;;3.00;97.30;;;;;;4926090;29;20204;-89
2023/11/25 16:43:49;;;;;;;1.20;1.10;;;3.00;97.30;;;;;;4912572;29;20214;-89
2023/11/25 16:46:14;;;;;;;1.83;1.43;;;3.00;97.30;;;;;;4906493;29;21018;-88
2023/11/25 16:48:40;;;;;;;1.10;1.00;;;3.00;97.30;;;;;;4909418;29;20519;-90
2023/11/25 16:51:07;;;;;;;1.50;1.40;;;3.00;97.30;;;;;;4901836;29;20205;-90
2023/11/25 16:53:33;;;;;;;1.10;1.00;;;3.00;97.30;;;;;;4908447;29;20227;-89
2023/11/25 16:55:58;;;;;;;1.00;0.90;;;3.00;97.30;;;;;;4906895;29;20658;-89
2023/11/25 16:58:24;;;;;;;2.40;1.33;;;3.00;97.30;;;;;;4915753;29;20184;-90
2023/11/25 17:00:50;;;;;;;2.60;2.40;;;2.90;97.30;;;;;;4931963;29;20262;-89
2023/11/25 17:03:15;;;;;;;12.00;1.87;;;2.90;97.30;;;;;;4906081;29;20280;-88
2023/11/25 17:05:41;;;;;;;1.00;0.90;;;2.90;97.30;;;;;;4906015;29;20531;-88
2023/11/25 17:08:07;;;;;;;1.30;1.20;;;2.90;97.30;;;;;;4922247;29;20184;-89
2023/11/25 17:10:32;;;;;;;1.00;0.90;;;2.90;97.30;;;;;;4893327;29;20187;-89
2023/11/25 17:12:58;;;;;;;1.50;1.40;;;2.90;97.30;;;;;;4913183;29;20275;-89
2023/11/25 17:15:24;;;;;;;1.30;1.23;;;2.90;97.30;;;;;;4906493;29;20181;-88
2023/11/25 17:17:49;;;;;;;1.10;1.00;;;2.90;97.30;;;;;;4915112;29;20184;-90
2023/11/25 17:20:15;;;;;;;1.00;0.90;;;2.90;97.30;;;;;;4925030;29;20185;-91
2023/11/25 17:22:41;;;;;;;1.10;1.00;;;2.90;97.30;;;;;;4907814;29;20306;-88
2023/11/25 17:25:10;;;;;;;1.07;0.97;;;2.80;97.30;;;;;;4915241;29;20176;-88
2023/11/25 17:27:37;;;;;;;1.00;0.90;;;2.70;97.30;;;;;;4903523;29;20423;-89
2023/11/25 17:30:04;;;;;;;1.00;0.90;;;2.70;97.30;;;;;;4901179;29;20428;-89
2023/11/25 17:32:30;;;;;;;0.93;0.83;;;2.70;97.30;;;;;;4907461;29;20471;-89
2023/11/25 17:34:57;;;;;;;1.00;0.90;;;2.70;97.30;;;;;;4904455;29;20917;-90
2023/11/25 17:37:23;;;;;;;1.97;1.57;;;2.60;97.30;;;;;;4899745;29;20181;-89
2023/11/25 17:39:49;;;;;;;0.90;0.80;;;2.60;97.30;;;;;;4900006;29;20428;-89
2023/11/25 17:42:15;;;;;;;1.47;1.37;;;2.60;97.30;;;;;;4905512;29;20471;-90
2023/11/25 17:44:40;;;;;;;1.63;1.47;;;2.60;97.30;;;;;;4912718;29;20483;-89
2023/11/25 17:47:06;;;;;;;1.03;0.93;;;2.70;97.30;;;;;;4923261;29;20180;-89
2023/11/25 17:49:32;;;;;;;1.00;0.90;;;2.70;97.30;;;;;;4906463;29;20656;-91
2023/11/25 17:51:58;;;;;;;1.00;0.90;;;2.70;97.30;;;;;;4906460;29;20456;-90
2023/11/25 17:54:25;;;;;;;1.23;1.13;;;2.70;97.30;;;;;;4906630;29;20232;-90
2023/11/25 17:56:50;;;;;;;1.20;1.10;;;2.70;97.30;;;;;;4905573;29;20337;-88